General Aviation Weather

Text Reports

Enter one or more of the following location identifiers separated by a space:

Zip Code, Four-Character ICAO or Three-Character IATA airport codes.

METAR - Aviation Routine Weather Report
KICR - Winner, South Dakota
Updated at 6:53 PM GMT on July 06, 2015 (1:53 PM CDT):
METAR KICR 061853Z AUTO 36017KT 5SM HZ BKN060 24/12 A3013 RMK AO2 PK WND 01026/1827 SLP188 T02390117
TAF - Terminal Area Forecast
KICR - Winner, South Dakota
Updated at 6:53 PM GMT on July 06, 2015 (1:53 PM CDT):
No TAF is currently available for this location.
Decoded:
No decoded TAF is available.
PIREP - Pilot Weather Report
KICR - Winner, South Dakota
Updated at 6:53 PM GMT on July 06, 2015 (1:53 PM CDT):
No PIREP is currently available for this location.
AIRMET - Airmens Meteorological Information
KICR - Winner, South Dakota
Updated at 6:53 PM GMT on July 06, 2015 (1:53 PM CDT):
No AIRMET is currently available for this location.
SIGMET - Significant Meteorological Information
KICR - Winner, South Dakota
Updated at 6:53 PM GMT on July 06, 2015 (1:53 PM CDT):
No SIGMET is currently available for this location.
NOTAM - Notice to Airmen
KICR - Winner, South Dakota
Updated at 6:53 PM GMT on July 06, 2015 (1:53 PM CDT):
No NOTAM is currently available for this location.
Forecast Area
KICR - Winner, South Dakota
Updated at 6:53 PM GMT on July 06, 2015 (1:53 PM CDT):
No NOTAM is currently available for this location.
Aviation Weather Maps